Time;durP1;ratioP1;P1;durP2;ratioP2;P2;SDS_P1;SDS_P2;PMS_P1;PMS_P2;Temp;Humidity;BMP_temperature;BMP_pressure;BME280_temperature;BME280_humidity;BME280_pressure;Samples;Min_cycle;Max_cycle;Signal;HPM_P1;HPM_P2
2022/01/04 00:01:20;;;;;;;20.13;5.35;;;;;;;9.01;80.71;100247.63;5010447;28;20477;-71
2022/01/04 00:03:46;;;;;;;24.48;5.30;;;;;;;9.01;80.47;100243.25;5029637;28;20148;-71
2022/01/04 00:06:12;;;;;;;17.75;5.13;;;;;;;9.01;80.78;100231.88;5028478;28;20036;-70
2022/01/04 00:08:37;;;;;;;19.27;6.55;;;;;;;8.97;80.77;100231.13;5029070;28;20030;-71
2022/01/04 00:11:18;;;;;;;17.83;6.55;;;;;;;8.95;80.76;100218.06;5008833;28;20112;-71
2022/01/04 00:13:44;;;;;;;24.52;7.07;;;;;;;8.95;80.96;100225.06;5021215;28;20065;-70
2022/01/04 00:16:10;;;;;;;30.40;7.28;;;;;;;8.92;81.04;100219.94;4990724;28;20105;-73
2022/01/04 00:18:39;;;;;;;23.83;7.55;;;;;;;8.92;80.85;100189.28;5009911;28;20400;-71
2022/01/04 00:21:05;;;;;;;21.83;6.97;;;;;;;8.96;80.78;100192.63;5011436;28;20061;-72
2022/01/04 00:23:30;;;;;;;23.27;7.75;;;;;;;8.99;80.60;100197.75;5048610;28;20071;-71
2022/01/04 00:25:56;;;;;;;28.85;8.27;;;;;;;8.92;80.84;100191.03;5048967;28;20102;-72
2022/01/04 00:28:21;;;;;;;28.42;8.13;;;;;;;8.96;80.76;100180.34;5048228;28;20040;-72
2022/01/04 00:30:47;;;;;;;22.83;7.60;;;;;;;8.96;80.75;100176.84;5030182;28;20112;-72
2022/01/04 00:33:13;;;;;;;21.40;8.07;;;;;;;8.96;80.27;100177.72;5021149;28;20076;-71
2022/01/04 00:35:40;;;;;;;17.35;7.68;;;;;;;8.96;80.58;100166.34;5008961;28;20114;-71
2022/01/04 00:38:06;;;;;;;23.08;6.90;;;;;;;8.98;80.64;100159.28;5045690;28;20063;-72
2022/01/04 00:40:31;;;;;;;22.70;7.45;;;;;;;8.95;80.48;100155.00;5048182;28;20028;-71
2022/01/04 00:43:00;;;;;;;22.77;7.75;;;;;;;8.92;80.83;100143.72;5029222;28;20039;-72
2022/01/04 00:45:26;;;;;;;26.55;8.32;;;;;;;8.87;81.01;100143.91;5048583;28;20056;-71
2022/01/04 00:50:21;;;;;;;22.20;7.83;;;;;;;8.84;80.82;100142.25;5019573;28;20036;-70
2022/01/04 00:52:48;;;;;;;23.75;8.15;;;;;;;8.83;80.90;100142.31;5018723;28;20306;-72
2022/01/04 00:55:13;;;;;;;31.17;8.32;;;;;;;8.85;80.78;100145.72;5017841;28;20366;-70
2022/01/04 00:57:39;;;;;;;20.35;7.60;;;;;;;8.80;81.19;100132.78;5018798;28;20029;-71
2022/01/04 01:00:06;;;;;;;20.55;7.80;;;;;;;8.78;80.93;100121.47;5021422;28;20033;-72
2022/01/04 01:02:31;;;;;;;17.65;7.35;;;;;;;8.78;81.22;100131.97;5000318;28;20039;-71
2022/01/04 01:04:57;;;;;;;27.85;7.38;;;;;;;8.76;81.29;100131.16;5028485;28;20021;-71
2022/01/04 01:07:22;;;;;;;17.45;7.60;;;;;;;8.79;81.12;100125.81;5025923;28;20444;-71
2022/01/04 01:12:22;;;;;;;31.05;9.18;;;;;;;8.73;81.51;100115.53;5033982;28;20530;-71
2022/01/04 01:14:48;;;;;;;21.25;8.10;;;;;;;8.74;81.05;100117.25;5013889;28;20049;-72
2022/01/04 01:17:13;;;;;;;21.58;8.52;;;;;;;8.77;81.18;100113.66;5029010;28;20072;-71
2022/01/04 01:19:38;;;;;;;20.83;9.15;;;;;;;8.72;81.10;100105.94;5026221;28;20044;-70
2022/01/04 01:22:04;;;;;;;22.20;9.15;;;;;;;8.76;80.88;100112.78;5026331;28;20044;-71
2022/01/04 01:24:29;;;;;;;17.55;8.95;;;;;;;8.74;80.75;100104.13;5043487;28;20060;-71
2022/01/04 01:26:54;;;;;;;19.83;9.35;;;;;;;8.75;81.00;100105.81;5045919;28;20544;-72
2022/01/04 01:29:20;;;;;;;20.73;9.07;;;;;;;8.74;80.65;100098.88;5013374;28;20037;-71
2022/01/04 01:31:45;;;;;;;19.45;9.68;;;;;;;8.74;80.65;100096.25;5022390;28;20037;-71
2022/01/04 01:34:10;;;;;;;21.42;9.70;;;;;;;8.74;80.56;100101.50;5015510;28;20049;-71
2022/01/04 01:36:36;;;;;;;22.50;9.38;;;;;;;8.76;80.38;100097.03;5007192;28;20113;-71
2022/01/04 01:39:02;;;;;;;21.70;10.10;;;;;;;8.79;80.56;100086.41;5025296;28;20108;-71
2022/01/04 01:41:27;;;;;;;25.67;9.98;;;;;;;8.72;80.62;100096.28;5025925;28;20424;-72
2022/01/04 01:43:53;;;;;;;17.88;9.18;;;;;;;8.78;80.46;100089.09;5010361;28;20030;-71
2022/01/04 01:46:18;;;;;;;17.02;8.43;;;;;;;8.78;80.34;100089.09;5026090;28;20026;-72
2022/01/04 01:48:43;;;;;;;21.13;10.05;;;;;;;8.73;80.64;100076.13;5036333;28;20029;-71
2022/01/04 01:51:09;;;;;;;16.00;8.60;;;;;;;8.76;80.81;100081.25;5025811;28;20030;-70
2022/01/04 01:53:34;;;;;;;21.30;9.65;;;;;;;8.76;80.76;100070.75;4999227;28;20537;-71
2022/01/04 01:56:00;;;;;;;17.60;9.25;;;;;;;8.75;80.37;100069.03;4991785;28;20029;-71
2022/01/04 01:58:25;;;;;;;20.13;9.07;;;;;;;8.77;80.38;100067.22;5034074;28;20033;-71
2022/01/04 02:00:50;;;;;;;21.90;11.15;;;;;;;8.66;80.76;100064.13;5032556;28;20064;-72
2022/01/04 02:03:16;;;;;;;16.17;9.32;;;;;;;8.74;80.50;100064.72;5021060;28;20073;-71
2022/01/04 02:05:41;;;;;;;19.02;11.38;;;;;;;8.67;80.93;100048.31;5010768;28;20056;-72
2022/01/04 02:08:06;;;;;;;22.45;10.93;;;;;;;8.72;80.79;100063.91;5023231;28;20092;-71
2022/01/04 02:10:32;;;;;;;22.73;10.48;;;;;;;8.72;80.70;100053.41;5005467;28;20026;-73
2022/01/04 02:12:58;;;;;;;22.45;10.50;;;;;;;8.74;80.62;100051.59;5046657;23;20151;-72
2022/01/04 02:15:24;;;;;;;16.50;10.75;;;;;;;8.71;80.70;100042.06;5045852;28;20474;-72
2022/01/04 02:17:50;;;;;;;21.60;10.73;;;;;;;8.62;81.11;100044.16;5045877;28;20035;-70
2022/01/04 02:20:16;;;;;;;25.30;11.52;;;;;;;8.67;80.91;100035.19;5045692;28;20025;-71
2022/01/04 02:22:43;;;;;;;20.52;11.32;;;;;;;8.70;80.51;100029.00;5044809;28;20037;-72
2022/01/04 02:25:09;;;;;;;16.05;10.68;;;;;;;8.68;80.83;100030.81;5045542;28;20024;-71
2022/01/04 02:27:35;;;;;;;24.55;10.23;;;;;;;8.70;80.72;100023.75;5045154;28;20040;-72
2022/01/04 02:30:02;;;;;;;23.80;10.52;;;;;;;8.62;80.93;100021.41;5045588;28;20091;-72
2022/01/04 02:32:27;;;;;;;17.42;10.93;;;;;;;8.61;81.21;100018.84;5045933;28;20082;-72
2022/01/04 02:34:53;;;;;;;24.83;9.70;;;;;;;8.59;81.21;100022.38;5027868;28;20036;-71
2022/01/04 02:37:24;;;;;;;21.05;9.68;;;;;;;8.61;81.04;100008.34;5044787;28;20124;-72
2022/01/04 02:39:51;;;;;;;20.20;9.98;;;;;;;8.64;81.07;100008.22;5044502;28;20054;-71
2022/01/04 02:42:17;;;;;;;19.60;9.80;;;;;;;8.59;81.07;100006.63;5044895;28;20112;-71
2022/01/04 02:44:43;;;;;;;18.25;10.48;;;;;;;8.58;81.20;100006.69;5046437;28;20105;-72
2022/01/04 02:47:08;;;;;;;16.65;9.15;;;;;;;8.58;81.46;100002.28;5045050;28;20033;-72
2022/01/04 02:49:34;;;;;;;21.55;9.77;;;;;;;8.59;81.07;99990.00;5046598;28;20435;-71
2022/01/04 02:51:59;;;;;;;22.23;9.43;;;;;;;8.61;80.99;99995.19;5042623;28;20037;-72
2022/01/04 02:54:25;;;;;;;14.63;7.82;;;;;;;8.63;81.28;99990.72;5008287;28;20083;-71
2022/01/04 02:56:50;;;;;;;16.02;9.25;;;;;;;8.61;81.35;99992.56;5025516;28;20083;-71
2022/01/04 02:59:16;;;;;;;24.58;8.52;;;;;;;8.58;81.38;99986.50;5045638;28;20549;-71
2022/01/04 03:01:41;;;;;;;18.90;8.45;;;;;;;8.57;81.19;99979.56;5045763;28;20037;-71
2022/01/04 03:04:07;;;;;;;20.08;8.25;;;;;;;8.59;81.17;99969.88;5045361;28;20108;-72
2022/01/04 03:06:34;;;;;;;17.42;8.07;;;;;;;8.57;81.12;99979.56;5045861;28;20385;-72
2022/01/04 03:08:59;;;;;;;21.38;8.70;;;;;;;8.52;81.31;99970.97;5044372;28;20051;-71
2022/01/04 03:11:25;;;;;;;18.52;7.93;;;;;;;8.54;81.51;99958.69;5045359;28;20586;-71
2022/01/04 03:13:50;;;;;;;25.60;8.48;;;;;;;8.58;81.15;99957.63;5044311;28;20033;-72
2022/01/04 03:16:15;;;;;;;19.52;8.18;;;;;;;8.53;81.06;99949.06;5045356;28;20459;-70
2022/01/04 03:19:02;;;;;;;26.45;10.15;;;;;;;8.50;81.26;99943.94;5039061;28;20024;-71
2022/01/04 03:21:26;;;;;;;21.73;9.88;;;;;;;8.51;81.30;99944.75;5040121;28;20029;-73
2022/01/04 03:23:51;;;;;;;22.13;10.05;;;;;;;8.51;81.41;99934.25;5044569;28;20032;-71
2022/01/04 03:26:16;;;;;;;24.00;10.13;;;;;;;8.46;81.59;99931.84;5026756;28;20021;-71
2022/01/04 03:28:42;;;;;;;17.38;9.88;;;;;;;8.47;81.20;99913.41;5043471;28;20082;-72
2022/01/04 03:31:08;;;;;;;21.88;9.80;;;;;;;8.47;81.09;99907.28;5042314;28;20097;-72
2022/01/04 03:33:36;;;;;;;25.02;9.90;;;;;;;8.47;81.24;99910.78;5032950;28;20105;-72
2022/01/04 03:36:03;;;;;;;24.40;10.17;;;;;;;8.44;81.27;99904.78;5025067;28;20065;-73
2022/01/04 03:38:29;;;;;;;24.67;10.27;;;;;;;8.43;81.30;99906.56;5005830;28;20299;-72
2022/01/04 03:40:54;;;;;;;23.92;9.77;;;;;;;8.42;81.43;99899.59;5041440;28;20539;-73
2022/01/04 03:43:21;;;;;;;25.33;8.93;;;;;;;8.50;81.20;99891.41;5027600;28;20029;-71
2022/01/04 03:45:46;;;;;;;21.83;9.80;;;;;;;8.45;81.40;99894.22;5028418;28;20038;-72
2022/01/04 03:48:12;;;;;;;21.25;10.60;;;;;;;8.43;81.37;99889.97;5024553;28;20091;-71
2022/01/04 03:50:39;;;;;;;29.65;11.20;;;;;;;8.49;81.15;99881.81;5037862;28;20036;-72
2022/01/04 03:53:04;;;;;;;20.80;10.90;;;;;;;8.51;81.18;99871.25;5035592;28;20232;-72
2022/01/04 03:55:29;;;;;;;15.40;9.45;;;;;;;8.49;81.39;99883.59;5051968;28;20032;-71
2022/01/04 03:57:55;;;;;;;15.85;10.98;;;;;;;8.48;81.07;99872.25;5066959;28;20107;-70
2022/01/04 04:00:20;;;;;;;21.58;10.90;;;;;;;8.48;81.26;99856.47;5057776;28;20033;-72
2022/01/04 04:02:45;;;;;;;21.35;12.77;;;;;;;8.41;81.45;99847.16;5047517;28;20659;-70
2022/01/04 04:05:12;;;;;;;28.73;16.42;;;;;;;8.43;81.18;99853.22;5048266;28;20033;-71
2022/01/04 04:07:38;;;;;;;24.58;13.75;;;;;;;8.41;81.38;99855.03;5056100;28;20037;-71
2022/01/04 04:10:03;;;;;;;25.17;15.32;;;;;;;8.37;81.56;99853.47;5067142;28;20363;-72
2022/01/04 04:12:29;;;;;;;22.05;15.00;;;;;;;8.32;81.99;99845.75;5022395;28;1066651;-72
2022/01/04 04:14:55;;;;;;;30.23;16.30;;;;;;;8.32;81.99;99846.63;5047634;28;20037;-71
2022/01/04 04:17:21;;;;;;;23.83;15.38;;;;;;;8.34;81.65;99842.16;5043062;28;20025;-72
2022/01/04 04:19:46;;;;;;;32.47;18.15;;;;;;;8.27;81.59;99851.19;5028536;28;20394;-71
2022/01/04 04:22:12;;;;;;;30.45;17.63;;;;;;;8.29;81.81;99838.88;5032782;28;20080;-71
2022/01/04 04:24:37;;;;;;;26.38;15.85;;;;;;;8.27;81.99;99834.59;5069017;28;20031;-71
2022/01/04 04:27:03;;;;;;;38.78;18.67;;;;;;;8.21;81.90;99844.44;5066465;28;20490;-70
2022/01/04 04:29:28;;;;;;;24.48;15.38;;;;;;;8.18;82.28;99835.81;5049158;28;20032;-70
2022/01/04 04:31:54;;;;;;;28.88;15.60;;;;;;;8.23;82.02;99836.50;5047529;28;20036;-71
2022/01/04 04:34:19;;;;;;;20.75;14.20;;;;;;;8.27;81.59;99827.56;5030826;28;20391;-70
2022/01/04 04:36:44;;;;;;;21.90;14.90;;;;;;;8.26;81.72;99828.50;5010083;28;20029;-67
2022/01/04 04:39:10;;;;;;;24.58;15.18;;;;;;;8.23;81.87;99823.38;5042713;28;20456;-72
2022/01/04 04:41:35;;;;;;;20.33;13.68;;;;;;;8.23;81.85;99810.25;5048067;28;20029;-72
2022/01/04 04:44:00;;;;;;;29.13;14.93;;;;;;;8.16;82.20;99795.69;5047443;28;20544;-72
2022/01/04 04:46:26;;;;;;;20.13;14.43;;;;;;;8.18;82.02;99817.44;5047791;28;20471;-72
2022/01/04 04:48:51;;;;;;;23.13;15.13;;;;;;;8.18;82.08;99806.94;5052108;28;20024;-71
2022/01/04 04:51:16;;;;;;;23.23;14.38;;;;;;;8.15;82.13;99801.81;5068367;28;20103;-70
2022/01/04 04:53:42;;;;;;;24.10;15.75;;;;;;;8.16;81.81;99814.88;5066085;28;20117;-72
2022/01/04 04:56:07;;;;;;;23.17;14.02;;;;;;;8.12;81.95;99801.97;5050647;28;20047;-74
2022/01/04 04:58:32;;;;;;;23.17;15.48;;;;;;;8.15;82.03;99796.56;5067447;28;20024;-72
2022/01/04 05:00:58;;;;;;;23.35;14.93;;;;;;;8.16;82.03;99798.31;5048600;28;20035;-73
2022/01/04 05:03:23;;;;;;;21.92;14.35;;;;;;;8.09;82.30;99802.94;5046417;28;20118;-72
2022/01/04 05:05:48;;;;;;;22.50;14.82;;;;;;;8.06;82.38;99798.66;5047227;28;20029;-71
2022/01/04 05:08:14;;;;;;;25.58;14.90;;;;;;;8.04;82.40;99792.63;5047419;28;20021;-72
2022/01/04 05:10:39;;;;;;;27.77;15.25;;;;;;;8.10;82.13;99788.91;5048127;28;20048;-72
2022/01/04 05:13:04;;;;;;;27.17;16.27;;;;;;;8.05;81.91;99782.97;5026412;28;20053;-72
2022/01/04 05:15:30;;;;;;;20.85;14.55;;;;;;;8.11;82.09;99781.88;5048297;28;20479;-73
2022/01/04 05:17:55;;;;;;;22.55;13.95;;;;;;;8.13;82.05;99767.75;5046978;28;20021;-72
2022/01/04 05:20:20;;;;;;;25.85;15.30;;;;;;;8.12;81.82;99775.72;5028072;28;20465;-72
2022/01/04 05:22:46;;;;;;;23.10;15.48;;;;;;;8.09;81.81;99780.19;5026427;28;20055;-71
2022/01/04 05:25:11;;;;;;;31.95;16.42;;;;;;;8.01;82.66;99779.63;5027484;28;20040;-73
2022/01/04 05:27:37;;;;;;;22.63;14.75;;;;;;;8.06;82.57;99776.81;5027364;28;20045;-73
2022/01/04 05:30:03;;;;;;;31.48;17.33;;;;;;;7.97;82.90;99784.16;5026729;28;20681;-72
2022/01/04 05:32:28;;;;;;;26.33;16.70;;;;;;;8.06;82.87;99771.56;5007337;28;20042;-72
2022/01/04 05:34:54;;;;;;;35.75;17.92;;;;;;;8.08;82.86;99761.88;5017959;28;20022;-71
2022/01/04 05:37:19;;;;;;;28.65;18.35;;;;;;;8.04;82.60;99763.75;5026724;28;20025;-73
2022/01/04 05:39:44;;;;;;;31.73;16.40;;;;;;;8.05;82.62;99762.84;5031181;28;20024;-73
2022/01/04 05:42:10;;;;;;;28.70;16.02;;;;;;;8.03;82.87;99755.94;5027378;28;20032;-72
2022/01/04 05:44:36;;;;;;;24.27;16.83;;;;;;;7.92;83.12;99762.47;5026049;28;20041;-71
2022/01/04 05:47:02;;;;;;;23.23;16.88;;;;;;;7.90;83.54;99766.94;5019213;28;20487;-73
2022/01/04 05:49:27;;;;;;;36.40;19.80;;;;;;;7.89;83.58;99761.75;5021878;28;20013;-71
2022/01/04 05:51:52;;;;;;;34.65;17.83;;;;;;;7.96;83.26;99765.84;5026737;28;20484;-71
2022/01/04 05:54:18;;;;;;;25.77;16.70;;;;;;;7.99;83.22;99762.22;5026805;28;20033;-71
2022/01/04 05:56:43;;;;;;;23.23;16.75;;;;;;;8.02;83.10;99751.63;5027659;28;20033;-72
2022/01/04 05:59:08;;;;;;;25.40;15.93;;;;;;;8.03;83.11;99758.56;5026855;28;20025;-72
2022/01/04 06:01:34;;;;;;;24.55;16.08;;;;;;;8.00;83.15;99750.84;5026814;28;20025;-72
2022/01/04 06:03:59;;;;;;;25.40;16.10;;;;;;;7.99;82.95;99741.25;5026614;28;20064;-73
2022/01/04 06:06:24;;;;;;;21.77;16.15;;;;;;;7.97;82.87;99736.06;5026975;28;20029;-71
2022/01/04 06:08:50;;;;;;;24.33;14.63;;;;;;;8.00;83.13;99735.94;5024619;28;20025;-72
2022/01/04 06:16:57;;;;;;;24.15;15.85;;;;;;;7.88;83.30;99734.66;5047390;28;20087;-72
2022/01/04 06:19:23;;;;;;;25.38;15.95;;;;;;;7.91;83.30;99726.69;5044008;28;20033;-71
2022/01/04 06:21:48;;;;;;;26.88;19.00;;;;;;;7.89;83.09;99736.38;5045484;28;20032;-70
2022/01/04 06:24:13;;;;;;;22.73;16.88;;;;;;;7.84;83.66;99733.09;5044923;28;20041;-71
2022/01/04 06:26:39;;;;;;;26.52;16.80;;;;;;;7.80;83.89;99737.59;5046547;28;20344;-69
2022/01/04 06:29:04;;;;;;;27.95;17.40;;;;;;;7.82;83.83;99743.66;5044736;28;20108;-72
2022/01/04 06:31:29;;;;;;;22.15;16.60;;;;;;;7.84;83.98;99731.34;5046444;28;20052;-73
2022/01/04 06:33:55;;;;;;;23.75;17.00;;;;;;;7.87;83.72;99719.84;5044259;28;20032;-72
2022/01/04 06:36:21;;;;;;;29.40;17.50;;;;;;;7.88;83.56;99704.97;5046759;28;20352;-73
2022/01/04 06:38:46;;;;;;;24.90;17.35;;;;;;;7.90;83.50;99708.38;5044703;28;20028;-71
2022/01/04 06:41:11;;;;;;;26.17;16.90;;;;;;;7.81;83.87;99705.22;5027910;28;20136;-72
2022/01/04 06:43:37;;;;;;;29.75;18.88;;;;;;;7.75;84.00;99688.88;5045986;28;20064;-72
2022/01/04 06:46:02;;;;;;;27.05;18.02;;;;;;;7.71;84.18;99683.75;5039011;28;20106;-73
2022/01/04 06:48:27;;;;;;;23.67;16.52;;;;;;;7.75;84.04;99686.25;5038478;28;20052;-71
2022/01/04 06:50:53;;;;;;;30.77;19.20;;;;;;;7.75;84.28;99694.13;5023380;28;20021;-73
2022/01/04 06:53:18;;;;;;;38.00;21.45;;;;;;;7.76;84.01;99694.06;5044604;28;20020;-71
2022/01/04 06:55:49;;;;;;;30.08;19.55;;;;;;;7.72;84.13;99700.34;5026659;28;20120;-72
2022/01/04 06:58:15;;;;;;;27.55;18.92;;;;;;;7.76;84.06;99698.44;5034038;28;20041;-69
2022/01/04 07:00:40;;;;;;;28.48;17.48;;;;;;;7.83;84.09;99702.56;5008547;28;20138;-70
2022/01/04 07:03:05;;;;;;;28.02;17.98;;;;;;;7.92;83.72;99691.66;5035698;28;20034;-69
2022/01/04 07:05:33;;;;;;;27.02;17.00;;;;;;;7.90;83.98;99687.41;5036000;28;20044;-69
2022/01/04 07:07:58;;;;;;;26.63;17.67;;;;;;;7.95;83.50;99675.78;5036009;28;20033;-71
2022/01/04 07:10:23;;;;;;;32.88;21.17;;;;;;;7.84;84.09;99671.00;5036410;28;20021;-71
2022/01/04 07:12:49;;;;;;;33.15;21.08;;;;;;;7.81;84.31;99665.91;5035536;28;20435;-69
2022/01/04 07:15:14;;;;;;;29.13;18.25;;;;;;;7.82;84.34;99664.97;5033294;28;20075;-71
2022/01/04 07:17:41;;;;;;;32.95;19.63;;;;;;;7.90;83.88;99655.91;5035704;28;20032;-68
2022/01/04 07:20:07;;;;;;;25.92;18.55;;;;;;;7.88;84.03;99663.84;5039073;28;20025;-69
2022/01/04 07:22:33;;;;;;;29.65;18.75;;;;;;;7.88;83.92;99663.84;5039398;28;20033;-69
2022/01/04 07:24:58;;;;;;;27.83;17.10;;;;;;;7.94;83.71;99670.59;5044666;28;20025;-69
2022/01/04 07:27:23;;;;;;;29.48;17.20;;;;;;;7.92;83.70;99669.84;5048717;28;20021;-70
2022/01/04 07:29:49;;;;;;;32.35;19.10;;;;;;;7.96;83.67;99671.41;5048704;28;20028;-69
2022/01/04 07:32:14;;;;;;;35.88;18.85;;;;;;;7.89;84.18;99665.56;5046163;28;20037;-69
2022/01/04 07:34:39;;;;;;;27.83;17.55;;;;;;;7.84;84.84;99652.66;5049265;28;20462;-68
2022/01/04 07:37:05;;;;;;;25.65;16.13;;;;;;;7.91;84.55;99668.13;5047737;28;20017;-67
2022/01/04 07:39:30;;;;;;;29.48;17.60;;;;;;;7.95;84.30;99682.81;5048722;28;20074;-68
2022/01/04 07:41:57;;;;;;;32.88;17.65;;;;;;;7.99;84.18;99676.53;5048262;28;20107;-72
2022/01/04 07:44:23;;;;;;;26.90;17.38;;;;;;;7.93;84.21;99672.41;5013104;28;20025;-71
2022/01/04 07:46:48;;;;;;;26.75;14.35;;;;;;;7.93;84.34;99672.41;5049380;28;20116;-70
2022/01/04 07:49:15;;;;;;;25.15;13.45;;;;;;;7.90;83.81;99676.91;5049753;28;20020;-70
2022/01/04 07:51:41;;;;;;;21.33;11.32;;;;;;;7.91;83.31;99663.72;5046815;28;20060;-71
2022/01/04 07:54:06;;;;;;;20.60;10.77;;;;;;;7.83;83.37;99671.06;5048900;28;20068;-69
2022/01/04 07:56:32;;;;;;;22.83;11.02;;;;;;;7.83;83.53;99682.41;5048253;28;20055;-71
2022/01/04 07:59:00;;;;;;;22.67;12.52;;;;;;;7.81;83.83;99671.13;5030408;28;20032;-71
2022/01/04 08:01:28;;;;;;;23.00;12.63;;;;;;;7.81;84.09;99679.00;5048567;28;20130;-68
2022/01/04 08:03:53;;;;;;;26.65;13.32;;;;;;;7.83;84.16;99682.41;5059399;28;20115;-70
2022/01/04 08:06:18;;;;;;;27.05;15.15;;;;;;;7.82;84.61;99672.84;5056862;28;20112;-70
2022/01/04 08:08:43;;;;;;;22.42;12.00;;;;;;;7.85;84.44;99677.09;5042554;28;20021;-69
2022/01/04 08:11:09;;;;;;;26.23;13.32;;;;;;;7.79;84.07;99675.59;5038684;28;20060;-71
2022/01/04 08:13:34;;;;;;;30.23;14.98;;;;;;;7.80;84.09;99686.94;5037860;28;20071;-70
2022/01/04 08:15:59;;;;;;;25.88;13.50;;;;;;;7.81;84.20;99681.63;5024337;28;20487;-69
2022/01/04 08:18:25;;;;;;;27.35;14.20;;;;;;;7.79;84.13;99690.44;5040361;28;20036;-70
2022/01/04 08:20:55;;;;;;;33.15;14.98;;;;;;;7.83;84.54;99686.81;5036936;28;20040;-70
2022/01/04 08:23:21;;;;;;;21.55;14.45;;;;;;;7.80;84.82;99694.81;5014255;28;20039;-72
2022/01/04 08:25:46;;;;;;;27.08;15.32;;;;;;;7.87;84.51;99698.00;4991964;28;20656;-70
2022/01/04 08:28:12;;;;;;;25.67;14.80;;;;;;;7.89;84.58;99699.66;5013824;28;20017;-69
2022/01/04 08:30:37;;;;;;;24.02;13.90;;;;;;;7.91;84.53;99710.06;5021782;28;20107;-68
2022/01/04 08:33:02;;;;;;;28.60;15.15;;;;;;;7.83;84.42;99713.03;5022713;28;20317;-67
2022/01/04 08:35:28;;;;;;;25.42;10.90;;;;;;;7.86;83.91;99712.06;5027388;28;20025;-69
2022/01/04 08:37:53;;;;;;;24.55;11.45;;;;;;;7.88;84.33;99715.44;5011602;28;20043;-69
2022/01/04 08:40:19;;;;;;;21.83;12.25;;;;;;;7.83;84.02;99718.28;5019995;28;20021;-68
2022/01/04 08:42:45;;;;;;;19.60;11.43;;;;;;;8.00;84.90;99722.81;5014752;28;20148;-64
2022/01/04 08:45:10;;;;;;;22.05;11.27;;;;;;;8.01;83.35;99728.94;4999521;28;20414;-65
2022/01/04 08:47:36;;;;;;;19.98;10.77;;;;;;;8.07;83.12;99733.94;5019777;28;20120;-65
2022/01/04 08:50:04;;;;;;;23.48;10.70;;;;;;;8.06;82.97;99733.06;5024703;28;20052;-65
2022/01/04 08:52:30;;;;;;;22.35;11.73;;;;;;;8.04;83.38;99732.28;5002897;28;20057;-66
2022/01/04 08:54:55;;;;;;;16.02;11.05;;;;;;;8.04;83.28;99724.41;5016125;28;20113;-67
2022/01/04 08:57:21;;;;;;;25.45;11.70;;;;;;;8.01;83.73;99723.69;5015581;28;20021;-66
2022/01/04 08:59:47;;;;;;;21.65;11.00;;;;;;;8.09;83.41;99730.31;5016377;28;20143;-64
2022/01/04 09:02:12;;;;;;;20.92;10.35;;;;;;;8.12;83.36;99721.47;5020386;28;20491;-64
2022/01/04 09:04:38;;;;;;;20.25;11.63;;;;;;;8.10;83.37;99718.06;5016706;28;20066;-65
2022/01/04 09:07:04;;;;;;;17.35;9.38;;;;;;;8.08;83.00;99712.88;5004411;28;20765;-70
2022/01/04 09:09:29;;;;;;;19.45;9.27;;;;;;;8.05;83.42;99714.75;5006128;28;20049;-71
2022/01/04 09:11:54;;;;;;;18.60;8.82;;;;;;;8.05;83.07;99704.28;5004099;28;20139;-71
2022/01/04 09:19:29;;;;;;;13.88;6.65;;;;;;;8.15;82.51;99717.84;5033877;28;20233;-70
2022/01/04 09:21:54;;;;;;;20.00;6.53;;;;;;;8.20;82.60;99716.75;5003679;28;20021;-71
2022/01/04 09:24:20;;;;;;;16.92;5.60;;;;;;;8.24;82.19;99711.38;5020639;28;20385;-71
2022/01/04 09:26:47;;;;;;;14.38;5.53;;;;;;;8.27;82.19;99716.47;5036714;28;20060;-70
2022/01/04 09:29:14;;;;;;;17.27;6.00;;;;;;;8.20;82.47;99714.13;5013612;28;20404;-71
2022/01/04 09:31:39;;;;;;;13.02;5.07;;;;;;;8.26;82.70;99715.66;5006157;28;20314;-71
2022/01/04 09:34:04;;;;;;;11.20;5.55;;;;;;;8.33;82.17;99719.72;4997377;28;20086;-71
2022/01/04 09:36:39;;;;;;;14.95;5.28;;;;;;;8.36;81.69;99715.25;5021268;28;20036;-72
2022/01/04 09:39:09;;;;;;;20.67;5.57;;;;;;;8.33;82.00;99721.47;4998232;28;20136;-70
2022/01/04 09:41:34;;;;;;;15.82;5.18;;;;;;;8.37;82.12;99716.97;5034108;28;20044;-72
2022/01/04 09:44:00;;;;;;;9.98;4.68;;;;;;;8.39;81.35;99721.22;5036178;28;20494;-61
2022/01/04 09:46:26;;;;;;;11.55;4.68;;;;;;;8.35;81.89;99724.91;5010281;28;20086;-71
2022/01/04 09:48:52;;;;;;;13.15;4.80;;;;;;;8.42;81.72;99731.59;5017591;28;20033;-73
2022/01/04 09:51:17;;;;;;;18.20;4.35;;;;;;;8.40;81.78;99728.16;5017833;28;20023;-73
2022/01/04 09:53:43;;;;;;;11.88;3.50;;;;;;;8.50;80.99;99722.53;5020012;28;20057;-64
2022/01/04 09:56:08;;;;;;;11.43;3.35;;;;;;;8.46;81.00;99721.81;5018452;28;20017;-67
2022/01/04 09:58:34;;;;;;;9.68;3.05;;;;;;;8.52;81.13;99729.41;5019744;28;20085;-65
2022/01/04 10:00:59;;;;;;;11.88;3.47;;;;;;;8.52;81.07;99721.53;5020433;28;20033;-65
2022/01/04 10:03:29;;;;;;;15.88;3.13;;;;;;;8.46;81.17;99732.31;5023329;28;20032;-65
2022/01/04 10:06:15;;;;;;;17.83;4.75;;;;;;;8.41;81.78;99726.41;5005630;28;20056;-65
2022/01/04 10:08:59;;;;;;;23.80;4.20;;;;;;;8.47;81.26;99731.41;5014077;28;20021;-63
2022/01/04 10:11:29;;;;;;;18.05;3.53;;;;;;;8.51;81.52;99740.84;5018835;28;20021;-62
2022/01/04 10:13:54;;;;;;;37.30;4.70;;;;;;;8.46;80.83;99724.44;5020047;28;20032;-68
2022/01/04 10:16:19;;;;;;;21.77;4.95;;;;;;;8.47;80.82;99729.63;5022482;28;20029;-62
2022/01/04 10:18:47;;;;;;;25.73;3.47;;;;;;;8.51;80.08;99721.59;4987325;28;20018;-64
2022/01/04 10:21:14;;;;;;;23.95;3.60;;;;;;;8.54;80.20;99717.09;5020422;28;20628;-61
2022/01/04 10:23:55;;;;;;;30.45;4.18;;;;;;;8.48;78.77;99722.59;5017050;28;20558;-61
2022/01/04 10:26:31;;;;;;;24.77;3.33;;;;;;;8.54;79.00;99714.47;5013128;28;20025;-63
2022/01/04 10:28:57;;;;;;;21.80;3.28;;;;;;;8.52;79.47;99712.81;4988516;28;20028;-65
2022/01/04 10:31:22;;;;;;;24.00;3.42;;;;;;;8.58;78.76;99715.22;5022990;28;20510;-63
2022/01/04 10:33:53;;;;;;;21.38;3.53;;;;;;;8.59;79.05;99712.53;5023150;28;20101;-66
2022/01/04 10:36:21;;;;;;;22.75;3.15;;;;;;;8.61;78.98;99709.81;5021452;28;20044;-63
2022/01/04 10:38:47;;;;;;;20.85;3.85;;;;;;;8.55;78.78;99708.31;5008645;28;20429;-64
2022/01/04 10:41:15;;;;;;;22.33;3.38;;;;;;;8.62;78.68;99706.28;5017544;28;20022;-64
2022/01/04 10:43:43;;;;;;;22.75;4.05;;;;;;;8.60;78.78;99713.34;4994959;28;20391;-67
2022/01/04 10:46:10;;;;;;;21.92;3.30;;;;;;;8.51;78.24;99706.72;5021737;28;20521;-63
2022/01/04 10:48:39;;;;;;;13.10;2.00;;;;;;;8.40;77.52;99722.09;5022861;28;20033;-65
2022/01/04 10:51:07;;;;;;;10.95;1.60;;;;;;;8.26;77.32;99720.03;5017693;28;20123;-64
2022/01/04 10:53:37;;;;;;;9.93;1.70;;;;;;;8.23;77.37;99723.66;5022817;28;20594;-63
2022/01/04 10:56:05;;;;;;;12.90;2.78;;;;;;;8.15;77.29;99728.34;5015095;28;20029;-63
2022/01/04 10:58:34;;;;;;;10.23;2.00;;;;;;;7.82;78.10;99737.53;5000718;28;20036;-63
2022/01/04 11:01:02;;;;;;;7.10;1.77;;;;;;;7.75;78.21;99736.06;4998996;28;20079;-68
2022/01/04 11:03:32;;;;;;;4.68;1.25;;;;;;;7.64;78.43;99749.59;4999342;28;20144;-69
2022/01/04 11:06:04;;;;;;;3.40;1.20;;;;;;;7.67;78.38;99739.00;5021623;28;20430;-68
2022/01/04 11:08:30;;;;;;;7.85;1.40;;;;;;;7.61;78.94;99749.75;5021364;28;20092;-68
2022/01/04 11:10:56;;;;;;;8.50;1.52;;;;;;;7.51;79.58;99754.47;4996263;28;20064;-65
2022/01/04 11:13:22;;;;;;;10.35;1.67;;;;;;;7.57;78.87;99752.50;4995542;28;20404;-69
2022/01/04 11:15:48;;;;;;;4.15;1.10;;;;;;;7.63;78.65;99753.16;4999328;28;20337;-70
2022/01/04 11:18:13;;;;;;;6.70;1.45;;;;;;;7.62;79.33;99752.31;5016040;28;20349;-71
2022/01/04 11:20:40;;;;;;;6.43;1.30;;;;;;;7.75;78.13;99762.31;5004163;28;20092;-70
2022/01/04 11:23:06;;;;;;;7.25;1.58;;;;;;;7.61;78.75;99760.25;5018180;28;20029;-69
2022/01/04 11:25:31;;;;;;;4.38;1.08;;;;;;;7.78;78.14;99768.28;5017286;28;20112;-71
2022/01/04 11:27:57;;;;;;;5.93;1.35;;;;;;;7.82;76.52;99761.13;5011981;28;20025;-65
2022/01/04 11:30:32;;;;;;;5.80;1.35;;;;;;;7.79;76.28;99766.50;5004984;28;20478;-68
2022/01/04 11:33:02;;;;;;;4.70;1.20;;;;;;;7.69;76.47;99773.91;5003955;28;20029;-67
2022/01/04 11:35:29;;;;;;;5.07;0.90;;;;;;;7.63;76.77;99769.75;5001078;28;20017;-69
2022/01/04 11:37:56;;;;;;;7.68;1.27;;;;;;;7.70;76.41;99771.22;5017875;28;20598;-68